createdAt,value
2018-08-09T00:05:45.045Z,9.46
2018-08-09T00:11:39.987Z,10.59
2018-08-09T00:17:34.999Z,8.85
2018-08-09T00:23:30.000Z,9.57
2018-08-09T00:29:24.991Z,12.02
2018-08-09T00:35:19.994Z,12.61
2018-08-09T00:41:15.053Z,10.29
2018-08-09T00:47:10.098Z,8.95
2018-08-09T00:53:04.997Z,10.07
2018-08-09T01:16:45.035Z,10.21
2018-08-09T01:16:45.061Z,11.7
2018-08-09T01:16:45.103Z,11.7
2018-08-09T01:16:45.112Z,11.7
2018-08-09T01:22:40.017Z,9.91
2018-08-09T01:28:35.027Z,11.71
2018-08-09T01:34:30.040Z,9.61
2018-08-09T01:40:25.062Z,12.72
2018-08-09T01:46:20.069Z,10.25
2018-08-09T01:52:15.096Z,11.5
2018-08-09T01:58:10.067Z,14.72
2018-08-09T02:04:05.041Z,11.5
2018-08-09T02:10:00.032Z,16.27
2018-08-09T02:15:55.054Z,11.92
2018-08-09T02:21:50.068Z,11.5
2018-08-09T02:27:45.058Z,12.55
2018-08-09T02:33:40.069Z,11.85
2018-08-09T02:39:35.127Z,12.56
2018-08-09T02:45:30.187Z,11.03
2018-08-09T02:51:25.060Z,14.23
2018-08-09T02:57:20.046Z,13.24
2018-08-09T03:03:15.068Z,13.24
2018-08-09T03:09:10.109Z,14.27
2018-08-09T03:15:05.070Z,13.02
2018-08-09T03:21:00.076Z,12.58
2018-08-09T03:26:55.073Z,12.39
2018-08-09T03:32:50.092Z,12.71
2018-08-09T03:38:45.090Z,13.68
2018-08-09T03:44:40.136Z,14.5
2018-08-09T03:50:35.108Z,14.62
2018-08-09T03:56:30.092Z,16.56
2018-08-09T04:20:10.090Z,13.66
2018-08-09T04:20:10.125Z,13.75
2018-08-09T04:20:10.140Z,13.75
2018-08-09T04:20:10.168Z,13.75
2018-08-09T04:26:05.132Z,14
2018-08-09T04:32:00.132Z,12.9
2018-08-09T04:37:55.192Z,14.04
2018-08-09T04:43:50.096Z,14.49
2018-08-09T04:49:45.084Z,14.9
2018-08-09T04:55:40.195Z,16.6
2018-08-09T05:01:35.085Z,15.48
2018-08-09T05:07:30.106Z,16.23
2018-08-09T05:13:25.120Z,16.57
2018-08-09T05:19:20.142Z,17.57
2018-08-09T05:25:15.146Z,15.65
2018-08-09T05:31:10.116Z,14.44
2018-08-09T05:37:05.100Z,15.24
2018-08-09T05:43:00.134Z,15.7
2018-08-09T05:48:55.163Z,15.96
2018-08-09T05:54:50.169Z,16.85
2018-08-09T06:00:45.129Z,25.19
2018-08-09T06:06:40.196Z,17.21
2018-08-09T06:12:35.118Z,17.03
2018-08-09T06:18:30.134Z,14.76
2018-08-09T06:24:25.128Z,17.67
2018-08-09T06:30:20.189Z,18.51
2018-08-09T06:36:15.129Z,17.15
2018-08-09T06:42:10.172Z,18.46
2018-08-09T06:48:05.123Z,17.7
2018-08-09T06:54:00.165Z,15.25
2018-08-09T07:17:40.144Z,15.89
2018-08-09T07:17:40.322Z,17.15
2018-08-09T07:17:40.331Z,17.15
2018-08-09T07:17:40.367Z,17.15
2018-08-09T07:23:35.177Z,16.42
2018-08-09T07:29:30.170Z,14.71
2018-08-09T07:35:25.217Z,18.53
2018-08-09T07:41:20.271Z,15.29
2018-08-09T07:47:15.161Z,14.03
2018-08-09T07:53:10.156Z,15.48
2018-08-09T07:59:05.160Z,15.43
2018-08-09T08:05:00.218Z,18.57
2018-08-09T08:10:55.167Z,12.93
2018-08-09T08:16:50.167Z,13.26
2018-08-09T08:22:45.157Z,13.72
2018-08-09T08:28:40.172Z,11.44
2018-08-09T08:34:35.243Z,15.48
2018-08-09T08:40:30.196Z,12.87
2018-08-09T08:46:25.217Z,12.04
2018-08-09T08:52:20.183Z,11.11
2018-08-09T08:58:15.187Z,12.16
2018-08-09T09:04:10.380Z,13.24
2018-08-09T09:10:05.209Z,15.65
2018-08-09T09:16:00.173Z,13.99
2018-08-09T09:21:55.207Z,12.97
2018-08-09T09:27:50.231Z,10.42
2018-08-09T09:33:45.195Z,12.6
2018-08-09T09:39:40.217Z,13.15
2018-08-09T09:45:35.232Z,12.42
2018-08-09T09:51:30.228Z,11.37
2018-08-09T09:57:25.237Z,12.12
2018-08-09T10:21:05.261Z,10.25
2018-08-09T10:21:05.274Z,15.05
2018-08-09T10:21:05.289Z,10.25
2018-08-09T10:21:05.322Z,10.25
2018-08-09T10:27:00.271Z,12.05
2018-08-09T10:32:55.275Z,8.92
2018-08-09T10:38:50.268Z,10.76
2018-08-09T10:44:45.234Z,9.21
2018-08-09T10:50:40.232Z,11.6
2018-08-09T10:56:35.221Z,14.47
2018-08-09T11:02:30.259Z,9.87
2018-08-09T11:08:25.243Z,7.94
2018-08-09T11:14:20.258Z,12.12
2018-08-09T11:20:15.263Z,8.12
2018-08-09T11:26:10.280Z,7.55
2018-08-09T11:32:05.320Z,8.5
2018-08-09T11:38:00.257Z,6.53
2018-08-09T11:43:55.269Z,6.85
2018-08-09T11:49:50.267Z,7.31
2018-08-09T11:55:45.261Z,6.59
2018-08-09T12:01:40.331Z,8.51
2018-08-09T12:07:35.276Z,10.6
2018-08-09T12:13:30.336Z,10.24
2018-08-09T12:19:25.317Z,8.16
2018-08-09T12:25:20.410Z,6.36
2018-08-09T12:31:15.419Z,7.07
2018-08-09T12:37:10.306Z,6.87
2018-08-09T12:43:05.275Z,8.48
2018-08-09T12:49:00.360Z,6.38
2018-08-09T12:54:55.312Z,6.9
2018-08-09T13:18:35.307Z,7.57
2018-08-09T13:18:35.525Z,7.47
2018-08-09T13:18:35.558Z,7.47
2018-08-09T13:18:35.562Z,7.47
2018-08-09T13:24:30.333Z,6.53
2018-08-09T13:30:25.302Z,7.16
2018-08-09T13:36:20.323Z,6.91
2018-08-09T13:42:15.386Z,6.47
2018-08-09T13:48:10.313Z,8.3
2018-08-09T13:54:05.320Z,7.83
2018-08-09T14:00:00.321Z,8.98
2018-08-09T14:05:55.318Z,6.47
2018-08-09T14:11:50.405Z,8.24
2018-08-09T14:17:45.351Z,11.41
2018-08-09T14:23:40.364Z,7.46
2018-08-09T14:29:35.321Z,7.06
2018-08-09T14:35:30.448Z,8.38
2018-08-09T14:41:25.380Z,7.47
2018-08-09T14:47:20.329Z,8.62
2018-08-09T14:53:15.370Z,12.54
2018-08-09T14:59:10.370Z,10.46
2018-08-09T15:05:05.381Z,10.22
2018-08-09T15:11:00.384Z,10.78
2018-08-09T15:16:55.397Z,9.7
2018-08-09T15:22:50.487Z,9.45
2018-08-09T15:28:45.424Z,10.03
2018-08-09T15:34:40.376Z,8.66
2018-08-09T15:40:35.367Z,9.23
2018-08-09T15:46:30.353Z,11.65
2018-08-09T15:52:25.404Z,8.74
2018-08-09T15:58:20.371Z,11.84
2018-08-09T16:22:00.387Z,9.55
2018-08-09T16:22:00.606Z,8.2
2018-08-09T16:22:00.614Z,7.84
2018-08-09T16:22:00.659Z,7.84
2018-08-09T16:27:55.376Z,10.4
2018-08-09T16:33:50.386Z,8.53
2018-08-09T16:39:45.403Z,9.01
2018-08-09T16:45:40.416Z,7.63
2018-08-09T16:51:35.391Z,8.71
2018-08-09T16:57:30.505Z,6.48
2018-08-09T17:03:25.433Z,8.43
2018-08-09T17:09:20.497Z,7.79
2018-08-09T17:15:15.427Z,9.01
2018-08-09T17:21:10.388Z,9.08
2018-08-09T17:27:05.415Z,8.02
2018-08-09T17:33:00.425Z,10.84
2018-08-09T17:38:55.442Z,9.13
2018-08-09T17:44:50.431Z,10.4
2018-08-09T17:50:45.434Z,7.92
2018-08-09T17:56:40.438Z,8.1
2018-08-09T18:02:35.455Z,12.54
2018-08-09T18:08:30.457Z,10.72
2018-08-09T18:14:25.429Z,9.62
2018-08-09T18:20:20.452Z,7.86
2018-08-09T18:26:15.433Z,10.07
2018-08-09T18:32:10.479Z,8.85
2018-08-09T18:38:05.491Z,9.47
2018-08-09T18:44:00.486Z,12.35
2018-08-09T18:49:55.457Z,11.02
2018-08-09T18:55:50.438Z,10.69
2018-08-09T19:19:30.471Z,10.25
2018-08-09T19:19:30.538Z,9.62
2018-08-09T19:19:30.552Z,9.62
2018-08-09T19:19:30.607Z,9.62
2018-08-09T19:25:25.496Z,11.35
2018-08-09T19:31:20.465Z,12.09
2018-08-09T19:37:15.499Z,11.25
2018-08-09T19:43:10.504Z,10.72
2018-08-09T19:49:05.460Z,9.16
2018-08-09T19:55:00.463Z,12.46
2018-08-09T20:00:55.477Z,10.86
2018-08-09T20:06:50.574Z,10.36
2018-08-09T20:12:45.467Z,11.73
2018-08-09T20:18:40.486Z,11.86
2018-08-09T20:24:35.473Z,12.97
2018-08-09T20:30:30.506Z,11.37
2018-08-09T20:36:25.544Z,11.65
2018-08-09T20:42:20.480Z,12.15
2018-08-09T20:48:15.523Z,11.61
2018-08-09T20:54:10.484Z,12
2018-08-09T21:00:05.522Z,13.38
2018-08-09T21:06:00.490Z,13.13
2018-08-09T21:11:55.535Z,11.23
2018-08-09T21:17:50.575Z,13.6
2018-08-09T21:23:45.507Z,11.34
2018-08-09T21:29:40.554Z,13.58
2018-08-09T21:35:35.547Z,13.73
2018-08-09T21:41:30.558Z,16.52
2018-08-09T21:47:25.534Z,14.54
2018-08-09T21:53:20.527Z,14.28
2018-08-09T21:59:15.553Z,13.59
2018-08-09T22:22:55.603Z,14.45
2018-08-09T22:22:55.626Z,13.95
2018-08-09T22:22:55.647Z,13.95
2018-08-09T22:22:55.674Z,13.95
2018-08-09T22:28:50.565Z,14.41
2018-08-09T22:34:45.573Z,12.72
2018-08-09T22:40:40.540Z,15.13
2018-08-09T22:46:35.572Z,12.89
2018-08-09T22:52:30.521Z,14.43
2018-08-09T22:58:25.572Z,14.87
2018-08-09T23:04:20.569Z,17.09
2018-08-09T23:10:15.528Z,13.11
2018-08-09T23:16:10.561Z,15.1
2018-08-09T23:22:05.636Z,15.23
2018-08-09T23:28:00.620Z,16.93
2018-08-09T23:33:55.549Z,14.19
2018-08-09T23:39:50.624Z,17.97
2018-08-09T23:45:45.556Z,14.48
2018-08-09T23:51:40.561Z,15.85
2018-08-09T23:57:35.606Z,13.69
